createdAt,value
2019-03-13T00:00:52.755Z,19.07
2019-03-13T00:03:22.985Z,17.87
2019-03-13T00:05:53.037Z,17.67
2019-03-13T00:08:23.250Z,17.20
2019-03-13T00:10:53.201Z,19.57
2019-03-13T00:13:23.197Z,17.17
2019-03-13T00:15:53.310Z,17.10
2019-03-13T00:18:23.334Z,17.67
2019-03-13T00:20:53.456Z,17.10
2019-03-13T00:23:23.610Z,17.03
2019-03-13T00:25:53.541Z,16.33
2019-03-13T00:28:23.560Z,17.37
2019-03-13T00:30:53.650Z,17.17
2019-03-13T00:33:23.887Z,15.67
2019-03-13T00:35:54.006Z,13.50
2019-03-13T00:38:23.959Z,14.90
2019-03-13T00:40:54.015Z,15.37
2019-03-13T00:43:24.129Z,17.17
2019-03-13T00:45:54.035Z,13.70
2019-03-13T00:48:24.023Z,14.57
2019-03-13T00:50:54.104Z,12.47
2019-03-13T00:53:24.202Z,14.63
2019-03-13T00:55:54.129Z,14.37
2019-03-13T00:58:25.519Z,12.97
2019-03-13T01:01:17.705Z,12.80
2019-03-13T01:03:58.474Z,14.60
2019-03-13T01:06:31.841Z,14.07
2019-03-13T01:09:01.774Z,14.37
2019-03-13T01:11:31.813Z,12.53
2019-03-13T01:14:01.796Z,11.93
2019-03-13T01:16:31.959Z,12.20
2019-03-13T01:19:02.092Z,12.03
2019-03-13T01:21:32.053Z,11.20
2019-03-13T01:24:02.145Z,10.77
2019-03-13T01:26:32.069Z,11.67
2019-03-13T01:29:02.137Z,13.10
2019-03-13T01:31:53.705Z,10.87
2019-03-13T01:34:33.148Z,9.80
2019-03-13T01:37:03.174Z,10.13
2019-03-13T01:39:33.256Z,10.17
2019-03-13T01:42:03.277Z,10.50
2019-03-13T01:44:33.378Z,12.40
2019-03-13T01:47:03.419Z,10.03
2019-03-13T01:49:33.377Z,10.77
2019-03-13T01:52:03.485Z,10.83
2019-03-13T01:54:33.571Z,10.93
2019-03-13T01:57:03.635Z,8.67
2019-03-13T01:59:33.682Z,9.70
2019-03-13T02:02:03.923Z,8.57
2019-03-13T02:04:33.972Z,9.80
2019-03-13T02:07:04.098Z,8.73
2019-03-13T02:09:34.056Z,9.97
2019-03-13T02:12:04.234Z,9.10
2019-03-13T02:14:34.314Z,8.73
2019-03-13T02:17:04.465Z,8.27
2019-03-13T02:19:34.597Z,7.30
2019-03-13T02:22:04.810Z,7.40
2019-03-13T02:24:34.727Z,9.80
2019-03-13T02:27:04.799Z,5.90
2019-03-13T02:29:34.759Z,7.00
2019-03-13T02:32:04.773Z,7.50
2019-03-13T02:34:34.765Z,6.50
2019-03-13T02:37:04.735Z,8.23
2019-03-13T02:39:34.892Z,7.20
2019-03-13T02:42:04.967Z,7.13
2019-03-13T02:44:35.022Z,7.40
2019-03-13T02:47:05.141Z,6.33
2019-03-13T02:49:35.097Z,7.57
2019-03-13T02:52:05.151Z,6.87
2019-03-13T02:54:35.236Z,6.10
2019-03-13T02:57:05.481Z,5.30
2019-03-13T02:59:35.393Z,7.13
2019-03-13T03:02:24.489Z,5.77
2019-03-13T03:04:56.144Z,5.23
2019-03-13T03:07:26.154Z,5.67
2019-03-13T03:09:56.120Z,5.37
2019-03-13T03:12:26.247Z,6.67
2019-03-13T03:15:02.154Z,5.63
2019-03-13T03:17:32.134Z,4.83
2019-03-13T03:20:02.301Z,5.00
2019-03-13T03:22:32.419Z,4.43
2019-03-13T03:25:02.319Z,4.97
2019-03-13T03:27:32.674Z,4.83
2019-03-13T03:30:03.805Z,5.00
2019-03-13T03:32:33.812Z,6.87
2019-03-13T03:35:03.740Z,5.07
2019-03-13T03:37:33.670Z,5.67
2019-03-13T03:40:03.766Z,4.87
2019-03-13T03:42:33.765Z,5.10
2019-03-13T03:45:03.794Z,4.97
2019-03-13T03:47:33.670Z,5.03
2019-03-13T03:50:03.790Z,4.93
2019-03-13T03:52:33.762Z,4.90
2019-03-13T03:55:03.933Z,5.53
2019-03-13T03:57:34.088Z,4.87
2019-03-13T04:00:04.250Z,5.60
2019-03-13T04:02:34.269Z,4.73
2019-03-13T04:05:04.662Z,5.17
2019-03-13T04:07:34.584Z,5.47
2019-03-13T04:10:04.808Z,5.93
2019-03-13T04:12:34.776Z,5.43
2019-03-13T04:15:05.167Z,5.77
2019-03-13T04:17:35.204Z,5.07
2019-03-13T04:20:05.870Z,5.27
2019-03-13T04:22:36.221Z,4.93
2019-03-13T04:25:14.460Z,5.43
2019-03-13T04:27:44.858Z,5.33
2019-03-13T04:30:14.943Z,4.83
2019-03-13T04:32:44.913Z,4.80
2019-03-13T04:35:14.942Z,5.00
2019-03-13T04:37:44.849Z,3.93
2019-03-13T04:40:14.973Z,4.97
2019-03-13T04:42:45.071Z,4.80
2019-03-13T04:45:15.222Z,4.73
2019-03-13T04:47:45.376Z,3.30
2019-03-13T04:50:15.486Z,5.27
2019-03-13T04:52:45.650Z,3.50
2019-03-13T04:55:16.060Z,3.37
2019-03-13T04:57:46.192Z,3.10
2019-03-13T05:00:16.367Z,3.23
2019-03-13T05:02:46.606Z,5.00
2019-03-13T05:06:01.094Z,3.07
2019-03-13T05:09:00.473Z,4.23
2019-03-13T05:11:30.494Z,3.23
2019-03-13T05:14:00.479Z,2.87
2019-03-13T05:16:30.547Z,3.97
2019-03-13T05:19:00.544Z,3.00
2019-03-13T05:21:30.513Z,5.73
2019-03-13T05:24:01.615Z,3.97
2019-03-13T05:26:31.629Z,3.00
2019-03-13T05:29:01.563Z,2.77
2019-03-13T05:31:31.677Z,4.57
2019-03-13T05:34:01.610Z,4.60
2019-03-13T05:36:31.678Z,4.10
2019-03-13T05:39:01.688Z,4.33
2019-03-13T05:41:31.653Z,4.30
2019-03-13T05:44:01.781Z,4.03
2019-03-13T05:46:31.690Z,5.77
2019-03-13T05:49:01.611Z,5.40
2019-03-13T05:51:31.694Z,4.90
2019-03-13T05:54:01.663Z,3.17
2019-03-13T05:56:31.894Z,4.17
2019-03-13T05:59:01.825Z,4.67
2019-03-13T06:01:31.863Z,3.97
2019-03-13T06:04:01.881Z,4.43
2019-03-13T06:06:31.891Z,4.07
2019-03-13T06:09:01.816Z,6.67
2019-03-13T06:11:31.798Z,5.23
2019-03-13T06:14:01.720Z,4.00
2019-03-13T06:16:31.599Z,3.17
2019-03-13T06:19:01.709Z,3.80
2019-03-13T06:21:31.739Z,3.57
2019-03-13T06:24:01.701Z,3.63
2019-03-13T06:26:31.686Z,5.63
2019-03-13T06:29:02.163Z,4.80
2019-03-13T06:31:32.242Z,3.27
2019-03-13T06:34:02.152Z,3.70
2019-03-13T06:36:32.327Z,4.93
2019-03-13T06:39:02.465Z,3.93
2019-03-13T06:41:32.520Z,2.67
2019-03-13T06:44:02.610Z,3.83
2019-03-13T06:46:32.659Z,5.33
2019-03-13T06:49:02.621Z,4.43
2019-03-13T06:51:32.687Z,2.93
2019-03-13T06:54:02.801Z,2.93
2019-03-13T06:56:32.722Z,5.87
2019-03-13T06:59:17.083Z,4.13
2019-03-13T07:02:08.722Z,3.50
2019-03-13T07:04:56.252Z,3.90
2019-03-13T07:07:43.630Z,3.47
2019-03-13T07:10:42.108Z,7.40
2019-03-13T07:13:33.990Z,5.50
2019-03-13T07:16:21.681Z,4.57
2019-03-13T07:19:16.457Z,6.13
2019-03-13T07:21:57.448Z,8.33
2019-03-13T07:24:44.716Z,3.47
2019-03-13T07:27:22.455Z,5.03
2019-03-13T07:30:23.238Z,4.30
2019-03-13T07:33:21.168Z,6.90
2019-03-13T07:35:59.820Z,4.80
2019-03-13T07:38:49.074Z,6.30
2019-03-13T07:41:36.779Z,5.00
2019-03-13T07:44:18.376Z,4.33
2019-03-13T07:47:06.027Z,6.00
2019-03-13T07:49:53.162Z,4.50
2019-03-13T07:52:39.467Z,4.63
2019-03-13T07:55:43.701Z,3.63
2019-03-13T07:58:35.116Z,6.53
2019-03-13T08:01:26.961Z,6.20
2019-03-13T08:04:14.640Z,5.53
2019-03-13T08:07:06.401Z,5.67
2019-03-13T08:09:55.257Z,7.77
2019-03-13T08:12:44.251Z,5.53
2019-03-13T08:15:32.353Z,6.83
2019-03-13T08:18:36.380Z,8.53
2019-03-13T08:21:28.250Z,11.30
2019-03-13T08:24:17.351Z,10.80
2019-03-13T08:27:18.724Z,14.03
2019-03-13T08:30:20.085Z,12.97
2019-03-13T08:33:10.229Z,14.87
2019-03-13T08:36:11.151Z,12.83
2019-03-13T08:38:58.652Z,15.67
2019-03-13T08:41:41.353Z,14.53
2019-03-13T08:44:21.270Z,15.53
2019-03-13T08:47:19.612Z,14.87
2019-03-13T08:50:08.505Z,19.93
2019-03-13T08:52:52.683Z,17.53
2019-03-13T08:55:45.500Z,15.80
2019-03-13T08:58:43.646Z,15.90
2019-03-13T09:01:35.440Z,13.73
2019-03-13T09:04:21.491Z,13.70
2019-03-13T09:07:04.467Z,14.87
2019-03-13T09:09:41.871Z,14.27
2019-03-13T09:12:30.849Z,12.43
2019-03-13T09:15:15.987Z,16.47
2019-03-13T09:18:20.138Z,14.17
2019-03-13T09:21:14.750Z,10.00
2019-03-13T09:24:02.209Z,12.83
2019-03-13T09:26:50.437Z,10.97
2019-03-13T09:29:42.069Z,12.40
2019-03-13T09:32:30.318Z,11.10
2019-03-13T09:35:09.365Z,11.97
2019-03-13T09:37:57.048Z,12.57
2019-03-13T09:41:01.106Z,12.60
2019-03-13T09:43:48.875Z,14.67
2019-03-13T09:46:52.864Z,13.30
2019-03-13T09:49:59.679Z,9.27
2019-03-13T09:52:54.516Z,10.43
2019-03-13T09:55:37.558Z,11.13
2019-03-13T09:58:41.543Z,13.13
2019-03-13T10:01:33.412Z,10.77
2019-03-13T10:04:20.819Z,9.00
2019-03-13T10:07:12.608Z,11.13
2019-03-13T10:10:10.672Z,9.63
2019-03-13T10:13:02.448Z,13.73
2019-03-13T10:15:51.248Z,8.93
2019-03-13T10:18:39.187Z,10.40
2019-03-13T10:21:40.055Z,8.37
2019-03-13T10:24:19.579Z,10.13
2019-03-13T10:26:57.709Z,9.53
2019-03-13T10:30:05.163Z,7.17
2019-03-13T10:33:06.140Z,10.97
2019-03-13T10:36:04.290Z,7.97
2019-03-13T10:38:53.188Z,7.03
2019-03-13T10:41:44.993Z,7.77
2019-03-13T10:44:36.649Z,8.60
2019-03-13T10:47:31.622Z,9.00
2019-03-13T10:50:26.731Z,8.33
2019-03-13T10:53:21.971Z,7.40
2019-03-13T10:56:10.878Z,5.43
2019-03-13T10:59:05.644Z,8.27
2019-03-13T11:01:41.809Z,8.17
2019-03-13T11:04:17.759Z,8.03
2019-03-13T11:07:05.660Z,7.43
2019-03-13T11:09:56.890Z,9.10
2019-03-13T11:12:38.463Z,7.73
2019-03-13T11:15:37.254Z,5.70
2019-03-13T11:18:30.470Z,5.93
2019-03-13T11:21:28.411Z,8.07
2019-03-13T11:24:09.543Z,6.90
2019-03-13T11:26:54.480Z,8.97
2019-03-13T11:29:55.255Z,8.27
2019-03-13T11:32:46.553Z,6.23
2019-03-13T11:35:34.241Z,6.77
2019-03-13T11:38:26.238Z,7.00
2019-03-13T11:41:06.407Z,6.10
2019-03-13T11:43:58.113Z,6.97
2019-03-13T11:46:45.084Z,6.63
2019-03-13T11:49:40.189Z,5.90
2019-03-13T11:52:22.808Z,5.27
2019-03-13T11:55:08.052Z,4.77
2019-03-13T11:57:55.601Z,10.33
2019-03-13T12:00:51.508Z,4.80
2019-03-13T12:03:28.210Z,6.30
2019-03-13T12:06:15.036Z,5.73
2019-03-13T12:09:08.055Z,5.13
2019-03-13T12:12:08.932Z,6.63
2019-03-13T12:15:01.127Z,5.87
2019-03-13T12:17:46.962Z,7.73
2019-03-13T12:20:38.902Z,5.23
2019-03-13T12:23:43.174Z,3.73
2019-03-13T12:26:41.111Z,4.47
2019-03-13T12:29:23.989Z,5.47
2019-03-13T12:32:04.713Z,6.13
2019-03-13T12:34:47.696Z,4.30
2019-03-13T12:37:33.801Z,6.03
2019-03-13T12:40:28.837Z,5.33
2019-03-13T12:43:05.969Z,4.87
2019-03-13T12:46:07.127Z,3.50
2019-03-13T12:48:58.677Z,4.63
2019-03-13T12:51:47.575Z,4.97
2019-03-13T12:54:44.402Z,5.80
2019-03-13T12:57:26.838Z,5.37
2019-03-13T13:00:04.242Z,4.00
2019-03-13T13:02:50.217Z,4.97
2019-03-13T13:05:30.547Z,4.77
2019-03-13T13:08:13.774Z,5.13
2019-03-13T13:11:14.763Z,4.33
2019-03-13T13:14:02.648Z,5.10
2019-03-13T13:16:40.912Z,6.40
2019-03-13T13:19:11.150Z,3.50
2019-03-13T13:21:41.112Z,3.23
2019-03-13T13:24:11.176Z,3.83
2019-03-13T13:26:41.268Z,3.10
2019-03-13T13:29:11.329Z,5.50
2019-03-13T13:31:41.360Z,3.87
2019-03-13T13:34:11.631Z,3.50
2019-03-13T13:36:41.587Z,3.60
2019-03-13T13:39:11.658Z,3.43
2019-03-13T13:41:41.674Z,3.70
2019-03-13T13:44:11.822Z,4.87
2019-03-13T13:46:44.532Z,2.63
2019-03-13T13:49:14.101Z,3.10
2019-03-13T13:51:44.135Z,3.53
2019-03-13T13:54:14.089Z,3.17
2019-03-13T13:56:44.209Z,3.40
2019-03-13T13:59:14.457Z,3.80
2019-03-13T14:01:44.454Z,5.90
2019-03-13T14:04:14.509Z,4.60
2019-03-13T14:06:44.559Z,3.03
2019-03-13T14:09:14.797Z,4.27
2019-03-13T14:11:44.839Z,3.67
2019-03-13T14:14:14.771Z,5.77
2019-03-13T14:16:44.802Z,3.10
2019-03-13T14:19:14.673Z,3.13
2019-03-13T14:21:44.791Z,3.80
2019-03-13T14:24:17.255Z,4.63
2019-03-13T14:26:46.597Z,3.77
2019-03-13T14:29:16.629Z,3.13
2019-03-13T14:31:46.543Z,3.17
2019-03-13T14:34:16.465Z,4.50
2019-03-13T14:36:47.700Z,3.33
2019-03-13T14:39:17.802Z,3.80
2019-03-13T14:41:47.674Z,3.83
2019-03-13T14:44:17.748Z,4.33
2019-03-13T14:46:47.743Z,3.57
2019-03-13T14:49:17.647Z,2.90
2019-03-13T14:51:47.799Z,2.90
2019-03-13T14:54:17.886Z,4.50
2019-03-13T14:56:47.869Z,5.23
2019-03-13T14:59:17.839Z,4.77
2019-03-13T15:01:47.899Z,4.10
2019-03-13T15:04:18.535Z,5.17
2019-03-13T15:06:48.484Z,2.47
2019-03-13T15:09:18.532Z,4.73
2019-03-13T15:11:48.500Z,4.70
2019-03-13T15:14:18.595Z,3.00
2019-03-13T15:16:48.569Z,3.67
2019-03-13T15:19:18.877Z,2.90
2019-03-13T15:21:48.905Z,2.10
2019-03-13T15:24:19.044Z,4.27
2019-03-13T15:26:48.902Z,3.80
2019-03-13T15:29:18.869Z,2.23
2019-03-13T15:31:49.002Z,2.33
2019-03-13T15:34:18.901Z,3.77
2019-03-13T15:36:48.930Z,3.27
2019-03-13T15:39:18.982Z,5.00
2019-03-13T15:41:49.442Z,4.57
2019-03-13T15:44:19.587Z,2.83
2019-03-13T15:46:49.668Z,6.93
2019-03-13T15:49:19.690Z,4.53
2019-03-13T15:51:49.721Z,4.50
2019-03-13T15:54:19.739Z,5.67
2019-03-13T15:56:49.726Z,9.00
2019-03-13T15:59:20.066Z,12.47
2019-03-13T16:01:49.979Z,8.80
2019-03-13T16:04:20.012Z,11.13
2019-03-13T16:06:50.011Z,10.60
2019-03-13T16:09:20.050Z,12.00
2019-03-13T16:11:49.979Z,10.97
2019-03-13T16:14:20.021Z,7.77
2019-03-13T16:16:50.026Z,10.53
2019-03-13T16:19:20.054Z,10.60
2019-03-13T16:21:50.190Z,10.13
2019-03-13T16:24:20.086Z,12.23
2019-03-13T16:26:50.072Z,8.43
2019-03-13T16:29:20.022Z,8.33
2019-03-13T16:31:50.059Z,8.60
2019-03-13T16:34:20.126Z,8.50
2019-03-13T16:36:50.072Z,9.20
2019-03-13T16:39:20.066Z,8.30
2019-03-13T16:41:50.027Z,8.33
2019-03-13T16:44:20.068Z,6.67
2019-03-13T16:46:49.982Z,9.63
2019-03-13T16:49:19.982Z,8.17
2019-03-13T16:51:49.914Z,9.37
2019-03-13T16:54:19.954Z,8.97
2019-03-13T16:56:49.980Z,10.17
2019-03-13T16:59:20.090Z,12.40
2019-03-13T17:01:50.198Z,12.27
2019-03-13T17:04:20.424Z,14.13
2019-03-13T17:06:50.439Z,12.83
2019-03-13T17:09:20.469Z,12.27
2019-03-13T17:11:50.445Z,11.77
2019-03-13T17:14:20.500Z,13.70
2019-03-13T17:16:50.688Z,11.23
2019-03-13T17:19:20.686Z,12.53
2019-03-13T17:21:50.695Z,11.53
2019-03-13T17:24:20.777Z,14.93
2019-03-13T17:26:50.677Z,10.73
2019-03-13T17:29:20.706Z,11.00
2019-03-13T17:31:50.802Z,12.20
2019-03-13T17:34:20.871Z,12.57
2019-03-13T17:36:50.970Z,10.53
2019-03-13T17:39:21.137Z,10.10
2019-03-13T17:41:51.110Z,13.10
2019-03-13T17:44:21.057Z,10.63
2019-03-13T17:46:51.082Z,9.67
2019-03-13T17:49:20.957Z,7.87
2019-03-13T17:51:50.928Z,8.43
2019-03-13T17:54:20.953Z,10.30
2019-03-13T17:56:50.954Z,7.87
2019-03-13T17:59:21.002Z,7.10
2019-03-13T18:01:51.072Z,9.13
2019-03-13T18:04:21.158Z,7.10
2019-03-13T18:06:51.081Z,7.90
2019-03-13T18:09:21.090Z,7.40
2019-03-13T18:11:51.239Z,6.70
2019-03-13T18:14:21.414Z,8.93
2019-03-13T18:16:51.473Z,9.00
2019-03-13T18:19:21.601Z,8.30
2019-03-13T18:21:51.593Z,8.63
2019-03-13T18:24:21.581Z,7.70
2019-03-13T18:26:51.564Z,7.03
2019-03-13T18:29:21.578Z,7.47
2019-03-13T18:31:51.558Z,7.17
2019-03-13T18:34:21.527Z,6.47
2019-03-13T18:36:54.241Z,5.87
2019-03-13T18:39:24.167Z,7.97
2019-03-13T18:41:54.244Z,7.83
2019-03-13T18:44:24.298Z,7.20
2019-03-13T18:46:54.174Z,8.33
2019-03-13T18:49:24.248Z,7.63
2019-03-13T18:51:54.355Z,5.50
2019-03-13T18:54:24.451Z,5.87
2019-03-13T18:56:54.361Z,6.27
2019-03-13T18:59:24.318Z,6.47
2019-03-13T19:01:54.487Z,6.00
2019-03-13T19:04:24.598Z,6.77
2019-03-13T19:06:54.639Z,5.33
2019-03-13T19:09:24.822Z,5.50
2019-03-13T19:11:54.767Z,6.67
2019-03-13T19:14:24.761Z,5.93
2019-03-13T19:16:54.770Z,7.37
2019-03-13T19:19:24.686Z,5.57
2019-03-13T19:21:54.569Z,6.47
2019-03-13T19:24:24.826Z,5.20
2019-03-13T19:26:54.910Z,5.77
2019-03-13T19:29:25.067Z,3.70
2019-03-13T19:31:56.859Z,5.50
2019-03-13T19:34:26.782Z,6.13
2019-03-13T19:36:56.694Z,8.90
2019-03-13T19:39:26.888Z,5.43
2019-03-13T19:41:56.891Z,4.37
2019-03-13T19:44:26.989Z,4.77
2019-03-13T19:46:56.934Z,5.67
2019-03-13T19:49:26.836Z,7.53
2019-03-13T19:51:56.966Z,9.50
2019-03-13T19:54:27.918Z,5.20
2019-03-13T19:56:58.086Z,5.40
2019-03-13T19:59:28.058Z,4.20
2019-03-13T20:01:58.998Z,5.60
2019-03-13T20:04:30.575Z,5.70
2019-03-13T20:07:00.826Z,5.53
2019-03-13T20:09:30.958Z,7.67
2019-03-13T20:12:01.023Z,6.50
2019-03-13T20:14:30.978Z,4.97
2019-03-13T20:17:01.698Z,6.23
2019-03-13T20:19:32.230Z,5.30
2019-03-13T20:22:02.557Z,5.67
2019-03-13T20:24:32.652Z,7.73
2019-03-13T20:27:02.735Z,4.07
2019-03-13T20:29:32.837Z,4.00
2019-03-13T20:32:03.022Z,4.33
2019-03-13T20:34:33.357Z,5.40
2019-03-13T20:37:03.670Z,5.13
2019-03-13T20:39:33.562Z,8.03
2019-03-13T20:42:03.625Z,5.83
2019-03-13T20:44:33.697Z,5.13
2019-03-13T20:47:03.746Z,5.97
2019-03-13T20:49:34.749Z,5.50
2019-03-13T20:52:06.494Z,5.63
2019-03-13T20:54:36.785Z,6.70
2019-03-13T20:57:06.912Z,6.57
2019-03-13T20:59:36.936Z,8.10
2019-03-13T21:02:07.103Z,6.30
2019-03-13T21:04:37.221Z,4.47
2019-03-13T21:07:08.734Z,6.53
2019-03-13T21:09:40.142Z,6.53
2019-03-13T21:12:10.586Z,7.33
2019-03-13T21:14:40.808Z,5.10
2019-03-13T21:17:10.798Z,5.30
2019-03-13T21:19:40.910Z,7.60
2019-03-13T21:22:10.889Z,7.77
2019-03-13T21:24:41.238Z,6.40
2019-03-13T21:27:11.956Z,8.77
2019-03-13T21:29:42.209Z,5.63
2019-03-13T21:32:12.274Z,6.97
2019-03-13T21:34:42.154Z,5.50
2019-03-13T21:37:12.147Z,6.60
2019-03-13T21:39:42.074Z,5.53
2019-03-13T21:42:12.738Z,4.90
2019-03-13T21:44:43.526Z,5.20
2019-03-13T21:47:13.783Z,9.03
2019-03-13T21:49:43.789Z,6.33
2019-03-13T21:52:13.726Z,6.43
2019-03-13T21:54:43.602Z,7.30
2019-03-13T21:57:13.651Z,6.70
2019-03-13T21:59:44.234Z,5.60
2019-03-13T22:02:14.533Z,5.97
2019-03-13T22:04:44.536Z,6.07
2019-03-13T22:07:14.488Z,4.77
2019-03-13T22:09:44.402Z,6.03
2019-03-13T22:12:14.358Z,6.03
2019-03-13T22:14:44.680Z,7.77
2019-03-13T22:17:15.723Z,5.20
2019-03-13T22:19:45.951Z,7.90
2019-03-13T22:22:15.974Z,7.03
2019-03-13T22:24:46.076Z,5.43
2019-03-13T22:27:16.224Z,4.97
2019-03-13T22:29:46.163Z,4.13
2019-03-13T22:32:16.157Z,6.50
2019-03-13T22:34:46.172Z,5.37
2019-03-13T22:37:16.178Z,6.47
2019-03-13T22:39:46.199Z,8.20
2019-03-13T22:42:16.176Z,8.37
2019-03-13T22:44:46.107Z,9.27
2019-03-13T22:47:16.250Z,9.43
2019-03-13T22:49:46.443Z,9.13
2019-03-13T22:52:16.488Z,10.80
2019-03-13T22:54:46.488Z,7.83
2019-03-13T22:57:16.568Z,10.60
2019-03-13T22:59:46.701Z,11.97
2019-03-13T23:02:18.181Z,11.20
2019-03-13T23:04:48.409Z,12.70
2019-03-13T23:07:18.553Z,12.93
2019-03-13T23:09:48.562Z,11.37
2019-03-13T23:12:18.635Z,12.73
2019-03-13T23:14:48.534Z,13.27
2019-03-13T23:17:18.601Z,11.97
2019-03-13T23:19:48.607Z,11.83
2019-03-13T23:22:18.515Z,13.90
2019-03-13T23:24:48.558Z,11.40
2019-03-13T23:27:18.678Z,13.30
2019-03-13T23:29:48.569Z,11.40
2019-03-13T23:32:18.478Z,10.77
2019-03-13T23:34:48.506Z,10.60
2019-03-13T23:37:18.456Z,13.93
2019-03-13T23:39:48.346Z,13.07
2019-03-13T23:42:18.457Z,9.53
2019-03-13T23:44:48.385Z,12.90
2019-03-13T23:47:18.294Z,10.53
2019-03-13T23:49:48.314Z,10.53
2019-03-13T23:52:18.303Z,11.10
2019-03-13T23:54:48.197Z,12.47
2019-03-13T23:57:18.227Z,11.27
2019-03-13T23:59:48.264Z,10.47
